KQYB

2018-02-20 23:45:04Z

Plaintext report →

Current Status: Fog

Temperature
High12.0 °C53.6 °F
Current11.3 °C52.3 °F
Low11.0 °C51.8 °F
Feels Like11.0 °C51.9 °F
Dewpoint11.0 °C51.8 °F
Winds
Speed and Direction0.0 m/s0.0 mi/h 0 kn 5 °
Gust0.0 m/s0.00 mi/h 0 kn
SquallUnavailable
Pressure and Humidity
Pressure At Field Level1029.7 mb30.4 in
Pressure At Sea Level1030.9 mb30.4 in
Pressure Trend-0.1 mb -0.0 in
Pressure Tendency 5
Humidity98 %

Station Alarms & Warnings:

Ceilometer Alarms / Warnings:

Ceilometer Data Missing!
Historical

Additional Information:

  METAR KQYB 202345Z AUTO 00000KT FG NCD 11/11 A3041 RMK AO2 SLP309 10120
  20110 55000 $=    
Cloud Cover
Layer 1 Undetected
Layer 2 Undetected
Layer 3 Undetected
Winds
2-minute Winds
Minimum0.0 m/s0.00 mi/h 0 kn334 °
Average0.3 m/s0.67 mi/h 0 kn347 °
Maximum0.6 m/s1.34 mi/h 1 kn 5 °
10-minute Winds
Minimum0.0 m/s0.00 mi/h 0 kn334 °
Average0.2 m/s0.45 mi/h 0 kn359 °
Maximum0.6 m/s1.34 mi/h 1 kn 5 °
Precipitation
Intensity0.00 mm/h0.00 in/h
Rainfall
1-hour Total0.00 mm0.00 in
3-hour Total0.00 mm0.00 in
6-hour Total0.00 mm0.00 in
24-hour Total0.00 mm0.00 in
Precipitation
1-hour Total0.00 mm0.00 in
3-hour Total0.00 mm0.00 in
6-hour Total0.00 mm0.00 in
24-hour Total0.00 mm0.00 in